Latest Weather Observations for Gabo Island

IDV60801

Issued at 11:31 am EDT Saturday 6 February 2016 (issued every 30 minutes, with the page automatically refreshed every 10 minutes)

About weather observations | Map of weather stations | Latest weather observations for VIC | Other Formats
Station Details ID: 084016 Name: GABO ISLAND LIGHTHOUSE Lat: -37.57 Lon: 149.92 Height: 15.2 m
Data from the previous 72 hours. | See also: Recent months at Gabo Island
Date/Time
EDT
Temp
°C
App
Temp
°C
Dew
Point
Rel
Hum
%
Delta-T
°C
Wind Press
QNH
hPa
Press
MSL
hPa
Rain
since 9 am
mm
Dir
 
Spd
km/h
Gust
km/h
Spd
kts
Gust
kts
06/11:30am 22.3 21.7 16.7 70 3.4 E 15 20 8 11 1020.1 - 0.2
06/11:00am 20.6 22.1 17.7 83 1.8 S 6 7 3 4 1020.3 - 0.2
06/10:30am 19.8 21.1 17.5 86 1.4 SW 7 9 4 5 1020.5 - 0.0
06/10:00am 19.5 20.5 17.7 89 1.1 SW 9 11 5 6 1020.5 - 0.0
06/09:30am 19.1 19.7 17.8 92 0.8 W 11 13 6 7 1020.4 - 0.0
06/09:00am 19.1 19.3 17.6 91 0.9 W 13 15 7 8 1020.4 1020.3 1.2
06/08:30am 18.4 19.2 17.2 93 0.7 WNW 9 13 5 7 1020.3 - 1.2
06/08:00am 18.2 18.5 17.0 93 0.7 WNW 11 13 6 7 1020.2 - 1.2
06/07:30am 17.9 17.7 16.6 92 0.8 W 13 15 7 8 1020.1 - 1.2
06/07:00am 18.0 18.3 17.0 94 0.6 NW 11 15 6 8 1019.9 - 1.2
06/06:30am 18.5 18.7 16.8 90 1.0 E 11 17 6 9 1019.6 - 1.2
06/06:00am 18.2 18.9 17.0 93 0.7 ESE 9 26 5 14 1019.7 1019.6 1.2
06/05:30am 17.8 18.4 16.8 94 0.6 NW 9 13 5 7 1019.4 - 0.8
06/05:00am 17.8 18.3 16.5 92 0.8 WNW 9 11 5 6 1019.5 - 0.8
06/04:30am 17.7 17.7 16.2 91 0.9 WNW 11 13 6 7 1019.5 - 0.8
06/04:00am 17.6 17.6 16.2 91 0.8 NW 11 13 6 7 1019.6 - 0.8
06/03:30am 17.7 17.7 16.2 91 0.9 NW 11 13 6 7 1019.8 - 0.8
06/03:00am 17.6 17.2 16.1 91 0.9 NW 13 15 7 8 1020.0 1020.0 0.8
06/02:30am 18.2 18.1 16.0 87 1.3 NNW 11 15 6 8 1020.3 - 0.8
06/02:00am 18.8 18.3 15.9 83 1.7 SW 13 17 7 9 1020.6 - 0.2
06/01:30am 19.3 18.1 15.0 76 2.5 S 15 17 8 9 1020.9 - 0.0
06/01:00am 19.5 18.1 15.6 78 2.3 SE 17 22 9 12 1021.2 - 0.0
06/12:30am 20.4 19.8 14.7 70 3.3 SE 11 17 6 9 1021.2 - 0.0
06/12:00am 20.4 20.0 15.1 71 3.1 SE 11 15 6 8 1021.5 1021.4 0.0
 
Date/Time
EDT
Temp
°C
App
Temp
°C
Dew
Point
Rel
Hum
%
Delta-T
°C
Wind Press
QNH
hPa
Press
MSL
hPa
Rain
since 9 am
mm
Dir
 
Spd
km/h
Gust
km/h
Spd
kts
Gust
kts
05/11:30pm 20.3 19.8 15.0 71 3.1 SE 11 17 6 9 1021.6 - 0.0
05/11:00pm 20.3 19.2 15.2 72 3.0 ESE 15 19 8 10 1021.8 - 0.0
05/10:30pm 20.1 19.2 14.8 71 3.1 SE 13 19 7 10 1022.0 - 0.0
05/10:00pm 20.2 18.8 14.5 69 3.3 SE 15 19 8 10 1022.1 - 0.0
05/09:30pm 20.2 18.8 14.5 69 3.3 SE 15 19 8 10 1022.0 - 0.0
05/09:00pm 20.3 18.9 14.4 69 3.4 SE 15 19 8 10 1021.6 1021.5 0.0
05/08:30pm 20.2 18.7 14.1 68 3.5 SE 15 22 8 12 1021.3 - 0.0
05/08:00pm 20.5 19.2 14.7 69 3.4 SE 15 20 8 11 1021.2 - 0.0
05/07:30pm 20.8 19.4 14.6 67 3.6 SE 15 20 8 11 1021.0 - 0.0
05/07:00pm 21.3 19.1 14.4 64 4.0 SSE 19 24 10 13 1020.7 - 0.0
05/06:30pm 21.4 18.9 14.2 63 4.2 SE 20 28 11 15 1020.6 - 0.0
05/06:00pm 21.9 20.2 14.6 63 4.3 SE 17 24 9 13 1020.7 1020.6 0.0
05/05:30pm 21.9 19.4 13.4 58 4.9 SE 19 28 10 15 1020.8 - 0.0
05/05:00pm 22.0 19.4 13.7 59 4.8 SE 20 30 11 16 1020.9 - 0.0
05/04:30pm 22.2 19.3 14.1 60 4.7 SSE 22 28 12 15 1021.0 - 0.0
05/04:00pm 22.0 19.0 14.7 63 4.3 SSE 24 32 13 17 1021.0 - 0.0
05/03:30pm 21.7 18.0 15.1 66 3.9 SSE 28 33 15 18 1021.1 - 0.0
05/03:00pm 21.1 17.1 15.2 69 3.5 SSE 30 37 16 20 1021.2 1021.1 0.0
05/02:30pm 22.0 18.8 15.3 65 4.0 SSE 26 33 14 18 1021.5 - 0.0
05/02:00pm 22.6 19.4 13.2 55 5.4 SSE 22 28 12 15 1021.6 - 0.0
05/01:30pm 22.9 20.4 14.0 57 5.2 SSE 20 26 11 14 1021.7 - 0.0
05/01:00pm 22.7 19.8 14.1 58 5.0 S 22 26 12 14 1021.9 - 0.0
05/12:30pm 22.2 19.4 15.3 65 4.1 S 24 30 13 16 1022.1 - 0.0
05/12:00pm 22.1 19.0 15.6 66 3.9 S 26 30 14 16 1022.2 1022.1 0.0
05/11:30am 21.6 18.9 15.7 69 3.5 S 24 30 13 16 1022.2 - 0.0
05/11:00am 21.1 17.8 15.0 68 3.6 S 26 30 14 16 1022.2 - 0.0
05/10:30am 21.0 17.1 15.4 70 3.3 S 30 35 16 19 1022.0 - 0.0
05/10:00am 20.7 17.4 14.9 69 3.4 S 26 32 14 17 1021.8 - 0.0
05/09:30am 20.3 16.2 15.0 71 3.1 S 30 33 16 18 1021.6 - 0.0
05/09:00am 19.8 15.8 15.2 75 2.7 S 30 35 16 19 1021.5 1021.4 0.0
05/08:30am 19.9 16.2 14.9 73 2.9 S 28 35 15 19 1021.2 - 0.0
05/08:00am 19.9 15.9 14.2 69 3.3 S 28 33 15 18 1021.0 - 0.0
05/07:30am 19.9 16.1 14.8 72 3.0 S 28 33 15 18 1020.7 - 0.0
05/07:00am 19.5 15.6 14.3 72 3.0 S 28 33 15 18 1020.5 - 0.0
05/06:30am 19.5 15.7 13.7 69 3.3 S 26 32 14 17 1020.1 - 0.0
05/06:00am 19.1 14.8 14.4 74 2.7 S 30 35 16 19 1019.8 1019.7 0.0
05/05:30am 19.2 15.3 13.2 68 3.4 S 26 33 14 18 1019.5 - 0.0
05/05:00am 18.9 13.7 12.8 67 3.4 S 32 35 17 19 1019.3 - 0.0
05/04:30am 19.3 15.9 13.7 70 3.2 S 24 32 13 17 1019.2 - 0.0
05/04:00am 19.1 15.4 13.9 72 3.0 S 26 32 14 17 1019.2 - 0.0
05/03:30am 19.2 14.9 14.5 74 2.7 S 30 35 16 19 1019.3 - 0.0
05/03:00am 19.4 15.7 11.6 60 4.3 SSE 22 24 12 13 1019.4 1019.3 0.0
05/02:30am 19.3 16.2 12.3 64 3.9 S 20 22 11 12 1019.5 - 0.0
05/02:00am 19.3 15.8 12.3 64 3.9 S 22 28 12 15 1019.7 - 0.0
05/01:30am 19.4 15.6 12.4 64 3.9 S 24 30 13 16 1019.8 - 0.0
05/01:00am 19.5 16.2 12.7 65 3.8 S 22 30 12 16 1019.9 - 0.0
05/12:30am 19.4 15.9 12.2 63 4.0 S 22 28 12 15 1020.1 - 0.0
05/12:00am 19.3 16.0 12.9 66 3.6 S 22 26 12 14 1020.1 1020.0 0.0
 
Date/Time
EDT
Temp
°C
App
Temp
°C
Dew
Point
Rel
Hum
%
Delta-T
°C
Wind Press
QNH
hPa
Press
MSL
hPa
Rain
since 9 am
mm
Dir
 
Spd
km/h
Gust
km/h
Spd
kts
Gust
kts
04/11:30pm 19.2 15.3 12.2 64 3.9 S 24 30 13 16 1020.2 - 0.0
04/11:00pm 19.3 15.1 12.5 64 3.8 S 26 33 14 18 1020.3 - 0.0
04/10:30pm 19.4 15.1 12.2 63 4.0 S 26 32 14 17 1020.5 - 0.0
04/10:00pm 19.3 14.8 12.7 65 3.7 S 28 33 15 18 1020.4 - 0.0
04/09:30pm 19.3 14.5 12.9 66 3.6 S 30 35 16 19 1020.2 - 0.0
04/09:00pm 19.6 15.3 13.2 66 3.6 S 28 35 15 19 1020.0 1019.9 0.0
04/08:30pm 19.6 14.9 13.1 66 3.7 S 30 35 16 19 1019.7 - 0.0
04/08:00pm 19.7 15.0 13.2 66 3.7 S 30 37 16 20 1019.5 - 0.0
04/07:30pm 19.9 14.7 12.8 63 4.0 S 32 35 17 19 1019.2 - 0.0
04/07:00pm 20.2 15.3 12.7 62 4.2 S 30 37 16 20 1018.9 - 0.0
04/06:30pm 20.4 15.3 13.0 62 4.2 S 32 35 17 19 1018.6 - 0.0
04/06:00pm 20.7 15.2 12.5 59 4.6 S 33 39 18 21 1018.4 1018.3 0.0
04/05:30pm 21.0 15.8 13.5 62 4.3 S 33 41 18 22 1018.2 - 0.0
04/05:00pm 21.3 16.0 13.1 59 4.7 S 33 39 18 21 1018.2 - 0.0
04/04:30pm 21.4 16.2 13.4 60 4.6 S 33 39 18 21 1018.3 - 0.0
04/04:00pm 21.4 16.4 13.4 60 4.6 S 32 37 17 20 1018.3 - 0.0
04/03:30pm 21.8 16.7 13.7 60 4.7 S 33 37 18 20 1018.2 - 0.0
04/03:00pm 21.7 16.7 13.9 61 4.5 S 33 39 18 21 1018.2 1018.1 0.0
04/02:30pm 22.0 17.2 14.7 63 4.3 S 33 41 18 22 1018.1 - 0.0
04/02:00pm 21.8 15.9 13.7 60 4.7 S 37 41 20 22 1018.0 - 0.0
04/01:30pm 21.5 16.6 13.7 61 4.5 S 32 35 17 19 1018.1 - 0.0
04/01:00pm 21.2 16.4 14.1 64 4.1 S 32 35 17 19 1018.1 - 0.0
04/12:30pm 21.1 16.5 14.6 66 3.8 S 32 37 17 20 1018.0 - 0.0
04/12:00pm 20.0 15.7 15.4 75 2.7 SSW 32 37 17 20 1017.9 1017.8 0.0
04/11:30am 19.5 15.1 15.6 78 2.3 SW 33 41 18 22 1017.6 - 0.0
04/11:00am 19.8 15.6 15.6 77 2.5 SSW 32 37 17 20 1017.3 - 0.0
04/10:30am 20.7 16.0 14.3 66 3.7 S 32 37 17 20 1017.2 - 0.0
04/10:00am 20.8 16.4 14.1 65 3.9 S 30 35 16 19 1017.0 - 0.0
04/09:30am 20.0 15.9 13.7 67 3.6 S 28 33 15 18 1017.0 - 0.0
04/09:00am 19.8 15.7 13.9 69 3.4 S 28 33 15 18 1017.0 1016.9 4.6
04/08:30am 19.0 16.4 14.9 77 2.4 S 22 39 12 21 1016.8 - 4.6
04/08:00am 17.6 13.6 15.2 86 1.4 WSW 30 37 16 20 1016.4 - 4.6
04/07:30am 17.0 12.4 15.1 88 1.1 WSW 33 41 18 22 1016.1 - 4.6
04/07:00am 16.9 11.4 14.8 87 1.2 WSW 37 44 20 24 1015.9 - 4.6
04/06:30am 16.4 10.7 14.3 87 1.2 WSW 37 44 20 24 1015.3 - 4.6
04/06:00am 16.6 10.3 14.7 88 1.1 WSW 41 50 22 27 1015.0 1014.9 4.0
04/05:30am 16.8 9.7 14.9 88 1.1 SW 46 56 25 30 1014.2 - 4.0
04/05:00am 16.9 9.8 15.0 88 1.1 SW 46 54 25 29 1013.6 - 3.8
04/04:30am 16.9 10.7 15.0 88 1.1 WSW 41 48 22 26 1013.3 - 3.8
04/04:00am 17.3 11.7 15.4 88 1.1 WSW 39 52 21 28 1012.8 - 3.6
04/03:30am 17.0 11.6 14.9 87 1.2 WSW 37 46 20 25 1012.7 - 3.4
04/03:00am 17.4 11.6 15.0 86 1.4 WSW 39 46 21 25 1012.4 1012.2 3.4
04/02:30am 18.1 11.6 15.0 82 1.8 WSW 43 52 23 28 1012.4 - 3.4
04/02:00am 18.2 11.7 15.5 84 1.6 WSW 44 57 24 31 1012.3 - 3.4
04/01:30am 18.4 12.2 16.0 86 1.4 WSW 43 52 23 28 1012.2 - 3.4
04/01:00am 18.7 12.3 15.8 83 1.7 WSW 44 57 24 31 1012.1 - 3.4
04/12:30am 19.0 14.3 15.8 82 1.9 WSW 35 43 19 23 1012.1 - 3.4
04/12:00am 19.1 14.3 15.7 80 2.0 WSW 35 44 19 24 1012.0 1011.9 3.4
 
Date/Time
EDT
Temp
°C
App
Temp
°C
Dew
Point
Rel
Hum
%
Delta-T
°C
Wind Press
QNH
hPa
Press
MSL
hPa
Rain
since 9 am
mm
Dir
 
Spd
km/h
Gust
km/h
Spd
kts
Gust
kts
03/11:56pm 19.1 13.1 15.4 79 2.2 WSW 41 59 22 32 1011.9 - 3.4
03/11:30pm 19.9 12.0 15.0 73 2.9 SW 50 59 27 32 1011.8 - 3.4
03/11:00pm 19.9 12.0 15.0 73 2.9 SW 50 57 27 31 1011.9 - 3.4
03/10:30pm 19.8 12.1 15.4 76 2.6 SW 50 57 27 31 1011.8 - 3.4
03/10:00pm 19.9 11.1 15.5 76 2.6 SW 56 65 30 35 1011.3 - 3.4
03/09:30pm 19.8 11.6 16.1 79 2.2 SW 54 61 29 33 1010.8 - 3.4
03/09:00pm 19.7 12.9 16.9 84 1.7 SW 48 61 26 33 1010.4 1010.3 3.4
03/08:30pm 19.4 15.1 17.9 91 0.9 WSW 37 46 20 25 1009.9 - 3.4
03/08:00pm 19.5 14.9 17.9 90 1.0 SW 39 46 21 25 1009.6 - 2.8
03/07:46pm 18.7 14.7 17.6 93 0.7 SW 35 57 19 31 1009.5 - 2.6
03/07:30pm 19.3 16.1 18.2 93 0.7 SW 32 39 17 21 1009.2 - 1.2
03/07:00pm 19.4 16.1 18.4 94 0.6 SW 33 43 18 23 1008.7 - 0.4
03/06:30pm 19.1 16.8 17.6 91 0.9 WSW 26 32 14 17 1008.2 - 0.0
03/06:00pm 19.4 15.9 17.8 90 1.0 SW 33 39 18 21 1007.7 1007.5 0.0
03/05:30pm 19.7 16.2 17.9 89 1.1 SW 33 41 18 22 1007.3 - 0.0
03/05:00pm 20.0 15.5 17.4 85 1.6 SW 37 43 20 23 1007.1 - 0.0
03/04:30pm 19.9 13.7 15.9 78 2.4 SW 43 50 23 27 1006.8 - 0.0
03/04:00pm 19.9 14.0 16.6 81 2.0 SW 43 50 23 27 1006.6 - 0.0
03/03:30pm 20.4 14.2 16.4 78 2.4 SW 44 56 24 30 1006.4 - 0.0
03/03:00pm 21.0 15.6 17.8 82 2.0 SW 43 52 23 28 1006.2 1006.1 0.0
03/02:30pm 20.9 15.3 17.8 82 1.9 SW 44 52 24 28 1006.0 - 0.0
03/02:00pm 21.4 15.9 17.7 79 2.3 SW 43 50 23 27 1005.7 - 0.0
03/01:30pm 21.3 17.1 18.9 86 1.5 SW 39 46 21 25 1005.6 - 0.0
03/01:00pm 21.8 16.9 19.1 84 1.7 SW 43 50 23 27 1005.3 - 0.0
03/12:30pm 22.1 17.1 18.8 81 2.1 SW 43 50 23 27 1005.0 - 0.0
03/12:00pm 21.9 17.1 18.4 80 2.2 SW 41 52 22 28 1004.9 1004.8 0.0

Other Formats:

Comma delimited format used in spreadsheet applications
http://www.bom.gov.au/fwo/IDV60801/IDV60801.94933.axf

JavaScript Object Notation format (JSON) in row-major order
http://www.bom.gov.au/fwo/IDV60801/IDV60801.94933.json